createdAt,value
2022-10-15T00:04:41.582Z,6.22
2022-10-15T00:09:56.802Z,6.47
2022-10-15T00:15:11.790Z,6.75
2022-10-15T00:20:27.139Z,5.43
2022-10-15T00:25:42.735Z,5.72
2022-10-15T00:30:58.143Z,6.68
2022-10-15T00:36:13.743Z,7.25
2022-10-15T00:41:28.764Z,7.43
2022-10-15T00:46:44.076Z,6.47
2022-10-15T00:51:59.744Z,7.60
2022-10-15T00:57:14.730Z,5.72
2022-10-15T01:02:29.795Z,5.72
2022-10-15T01:07:44.826Z,9.68
2022-10-15T01:13:00.215Z,5.95
2022-10-15T01:18:16.104Z,8.32
2022-10-15T01:23:32.035Z,10.95
2022-10-15T01:28:47.561Z,9.57
2022-10-15T01:34:02.579Z,8.40
2022-10-15T01:39:17.763Z,8.43
2022-10-15T01:44:34.022Z,6.60
2022-10-15T01:49:53.756Z,6.20
2022-10-15T01:55:08.774Z,6.68
2022-10-15T02:00:24.061Z,8.52
2022-10-15T02:05:44.104Z,9.97
2022-10-15T02:10:59.785Z,7.75
2022-10-15T02:16:14.778Z,8.43
2022-10-15T02:21:34.052Z,6.28
2022-10-15T02:26:50.081Z,10.68
2022-10-15T02:32:05.751Z,8.48
2022-10-15T02:37:21.780Z,12.23
2022-10-15T02:42:36.519Z,11.32
2022-10-15T02:47:53.064Z,8.07
2022-10-15T02:53:08.829Z,8.00
2022-10-15T02:58:25.975Z,7.18
2022-10-15T03:03:41.824Z,9.02
2022-10-15T03:08:57.089Z,7.78
2022-10-15T03:14:13.732Z,8.75
2022-10-15T03:19:28.819Z,7.30
2022-10-15T03:24:43.826Z,10.93
2022-10-15T03:30:05.127Z,9.00
2022-10-15T03:35:21.074Z,9.13
2022-10-15T03:40:37.090Z,8.88
2022-10-15T03:46:00.768Z,11.95
2022-10-15T03:51:23.477Z,12.63
2022-10-15T03:56:53.056Z,16.08
2022-10-15T04:07:29.159Z,12.27
2022-10-15T04:12:47.075Z,10.32
2022-10-15T04:18:02.756Z,7.93
2022-10-15T04:23:18.784Z,8.48
2022-10-15T04:28:53.175Z,10.93
2022-10-15T04:34:10.026Z,7.53
2022-10-15T04:39:30.832Z,9.70
2022-10-15T04:44:45.785Z,12.55
2022-10-15T04:50:01.060Z,12.52
2022-10-15T04:55:34.799Z,9.13
2022-10-15T05:00:50.143Z,17.30
2022-10-15T05:06:25.766Z,11.98
2022-10-15T05:11:50.107Z,14.43
2022-10-15T05:17:07.805Z,15.82
2022-10-15T05:22:25.109Z,10.15
2022-10-15T05:27:42.782Z,10.68
2022-10-15T05:32:57.795Z,10.70
2022-10-15T05:43:36.177Z,9.98
2022-10-15T05:49:03.853Z,7.72
2022-10-15T05:54:29.089Z,7.65
2022-10-15T05:59:45.099Z,8.38
2022-10-15T06:05:00.759Z,14.93
2022-10-15T06:10:15.783Z,17.58
2022-10-15T06:15:30.782Z,27.10
2022-10-15T06:20:46.819Z,20.35
2022-10-15T06:26:01.805Z,14.43
2022-10-15T06:31:17.395Z,14.90
2022-10-15T06:36:32.790Z,9.40
2022-10-15T06:41:47.784Z,9.98
2022-10-15T06:47:03.066Z,10.52
2022-10-15T06:52:18.849Z,8.48
2022-10-15T06:57:33.815Z,8.18
2022-10-15T07:02:48.772Z,8.90
2022-10-15T07:08:04.194Z,8.52
2022-10-15T07:13:20.146Z,7.13
2022-10-15T07:18:35.917Z,10.65
2022-10-15T07:23:50.808Z,9.57
2022-10-15T07:29:05.591Z,8.05
2022-10-15T07:34:21.217Z,8.40
2022-10-15T07:39:40.646Z,6.55
2022-10-15T07:44:57.358Z,6.50
2022-10-15T07:50:13.136Z,6.47
2022-10-15T07:55:29.094Z,5.28
2022-10-15T08:00:44.571Z,7.93
2022-10-15T08:06:00.098Z,11.30
2022-10-15T08:11:15.795Z,8.07
2022-10-15T08:16:31.133Z,7.22
2022-10-15T08:21:47.603Z,6.35
2022-10-15T08:27:02.795Z,9.43
2022-10-15T08:32:18.547Z,6.07
2022-10-15T08:37:33.920Z,5.10
2022-10-15T08:42:48.799Z,9.77
2022-10-15T08:48:03.596Z,5.40
2022-10-15T08:53:18.839Z,7.05
2022-10-15T08:58:38.282Z,7.65
2022-10-15T09:03:55.812Z,5.63
2022-10-15T09:09:48.845Z,6.40
2022-10-15T09:15:03.801Z,6.75
2022-10-15T09:20:18.839Z,6.20
2022-10-15T09:25:35.836Z,7.97
2022-10-15T09:30:51.772Z,7.70
2022-10-15T09:36:06.788Z,8.30
2022-10-15T09:41:21.791Z,6.03
2022-10-15T09:46:36.793Z,7.35
2022-10-15T09:51:51.777Z,8.82
2022-10-15T09:57:07.111Z,8.93
2022-10-15T10:02:23.008Z,9.65
2022-10-15T10:07:40.125Z,8.25
2022-10-15T10:12:55.810Z,16.63
2022-10-15T10:18:11.845Z,85.78
2022-10-15T10:23:27.119Z,88.32
2022-10-15T10:28:44.331Z,118.38
2022-10-15T10:33:59.802Z,120.78
2022-10-15T10:39:15.868Z,123.00
2022-10-15T10:44:31.111Z,110.25
2022-10-15T10:49:47.110Z,114.03
2022-10-15T10:55:03.118Z,112.32
2022-10-15T11:00:18.817Z,101.95
2022-10-15T11:05:33.849Z,91.03
2022-10-15T11:10:49.056Z,80.65
2022-10-15T11:16:04.844Z,81.45
2022-10-15T11:21:19.846Z,62.42
2022-10-15T11:26:46.068Z,57.08
2022-10-15T11:32:21.054Z,46.58
2022-10-15T11:37:37.889Z,47.15
2022-10-15T11:42:53.092Z,41.85
2022-10-15T11:48:10.145Z,36.65
2022-10-15T11:53:25.573Z,28.75
2022-10-15T11:58:40.592Z,32.80
2022-10-15T12:03:55.614Z,18.70
2022-10-15T12:09:10.807Z,19.65
2022-10-15T12:14:26.029Z,20.55
2022-10-15T12:19:41.878Z,20.38
2022-10-15T12:24:56.887Z,21.73
2022-10-15T12:30:13.686Z,15.10
2022-10-15T12:35:30.833Z,14.88
2022-10-15T12:40:45.811Z,17.38
2022-10-15T12:46:00.875Z,10.27
2022-10-15T12:51:15.811Z,10.60
2022-10-15T12:56:30.827Z,8.68
2022-10-15T13:01:45.566Z,10.85
2022-10-15T13:07:00.850Z,9.60
2022-10-15T13:12:15.821Z,9.23
2022-10-15T13:17:30.800Z,9.93
2022-10-15T13:22:45.889Z,7.45
2022-10-15T13:28:00.834Z,6.13
2022-10-15T13:33:15.830Z,8.57
2022-10-15T13:38:30.820Z,6.97
2022-10-15T13:43:45.893Z,5.88
2022-10-15T13:49:01.220Z,5.47
2022-10-15T13:54:15.889Z,5.53
2022-10-15T13:59:30.798Z,5.55
2022-10-15T14:04:45.793Z,5.45
2022-10-15T14:10:00.814Z,5.00
2022-10-15T14:15:15.818Z,5.72
2022-10-15T14:20:30.839Z,4.38
2022-10-15T14:25:46.116Z,4.63
2022-10-15T14:31:01.872Z,5.13
2022-10-15T14:36:16.849Z,4.78
2022-10-15T14:41:31.949Z,8.63
2022-10-15T14:46:46.859Z,4.55
2022-10-15T14:52:01.873Z,4.93
2022-10-15T14:57:16.834Z,2.78
2022-10-15T15:02:32.298Z,4.05
2022-10-15T15:07:47.844Z,5.65
2022-10-15T15:13:02.860Z,4.90
2022-10-15T15:18:17.874Z,4.05
2022-10-15T15:23:32.840Z,2.80
2022-10-15T15:28:48.219Z,3.50
2022-10-15T15:34:03.892Z,4.28
2022-10-15T15:39:18.854Z,4.55
2022-10-15T15:44:33.800Z,3.65
2022-10-15T15:49:48.813Z,4.93
2022-10-15T15:55:03.825Z,3.97
2022-10-15T16:00:18.839Z,3.33
2022-10-15T16:05:33.843Z,3.05
2022-10-15T16:10:49.154Z,3.08
2022-10-15T16:16:04.865Z,3.10
2022-10-15T16:21:19.862Z,4.55
2022-10-15T16:26:34.884Z,4.72
2022-10-15T16:31:49.584Z,2.60
2022-10-15T16:37:05.153Z,3.78
2022-10-15T16:42:20.831Z,4.35
2022-10-15T16:47:35.834Z,3.47
2022-10-15T16:52:51.877Z,3.70
2022-10-15T16:58:06.846Z,2.70
2022-10-15T17:03:22.221Z,4.15
2022-10-15T17:08:37.837Z,3.45
2022-10-15T17:13:52.837Z,2.15
2022-10-15T17:19:07.868Z,4.65
2022-10-15T17:24:22.918Z,4.20
2022-10-15T17:29:37.843Z,2.35
2022-10-15T17:34:53.190Z,2.58
2022-10-15T17:40:10.209Z,3.60
2022-10-15T17:45:25.828Z,3.38
2022-10-15T17:50:45.220Z,4.00
2022-10-15T18:01:23.660Z,4.20
2022-10-15T18:06:48.891Z,3.85
2022-10-15T18:12:06.840Z,3.75
2022-10-15T18:17:22.399Z,2.95
2022-10-15T18:22:38.884Z,2.35
2022-10-15T18:27:53.923Z,2.90
2022-10-15T18:33:08.884Z,4.78
2022-10-15T18:38:24.202Z,2.67
2022-10-15T18:43:39.241Z,4.03
2022-10-15T18:48:54.856Z,2.75
2022-10-15T18:54:11.869Z,2.70
2022-10-15T18:59:26.910Z,3.13
2022-10-15T19:04:44.098Z,3.75
2022-10-15T19:09:59.879Z,5.60
2022-10-15T19:15:14.839Z,6.28
2022-10-15T19:20:29.873Z,4.53
2022-10-15T19:25:44.830Z,3.13
2022-10-15T19:30:59.861Z,3.67
2022-10-15T19:36:17.602Z,3.72
2022-10-15T19:41:32.859Z,4.78
2022-10-15T19:46:47.942Z,3.22
2022-10-15T19:52:02.847Z,5.80
2022-10-15T19:57:19.818Z,5.40
2022-10-15T20:02:34.926Z,5.10
2022-10-15T20:07:50.099Z,5.20
2022-10-15T20:13:05.908Z,4.20
2022-10-15T20:18:20.872Z,5.20
2022-10-15T20:23:35.853Z,2.85
2022-10-15T20:28:51.268Z,3.00
2022-10-15T20:34:06.844Z,4.93
2022-10-15T20:39:21.885Z,3.95
2022-10-15T20:44:36.893Z,10.98
2022-10-15T20:49:52.824Z,9.95
2022-10-15T20:55:07.825Z,11.15
2022-10-15T21:00:22.856Z,5.38
2022-10-15T21:05:37.857Z,6.60
2022-10-15T21:10:52.880Z,8.65
2022-10-15T21:16:07.846Z,10.20
2022-10-15T21:21:22.839Z,3.83
2022-10-15T21:26:37.888Z,7.18
2022-10-15T21:31:52.885Z,3.70
2022-10-15T21:37:07.858Z,3.92
2022-10-15T21:42:23.075Z,4.68
2022-10-15T21:47:39.116Z,4.22
2022-10-15T21:52:55.888Z,5.30
2022-10-15T21:58:11.171Z,5.22
2022-10-15T22:03:26.861Z,2.65
2022-10-15T22:08:41.853Z,5.05
2022-10-15T22:13:56.913Z,5.18
2022-10-15T22:19:11.837Z,3.80
2022-10-15T22:24:26.841Z,4.07
2022-10-15T22:29:41.956Z,4.82
2022-10-15T22:34:56.842Z,4.88
2022-10-15T22:40:11.883Z,3.35
2022-10-15T22:45:26.924Z,3.45
2022-10-15T22:50:41.867Z,3.88
2022-10-15T22:55:56.863Z,4.13
2022-10-15T23:01:11.982Z,5.68
2022-10-15T23:06:26.824Z,6.38
2022-10-15T23:11:41.593Z,6.15
2022-10-15T23:16:56.871Z,10.00
2022-10-15T23:22:12.189Z,10.05
2022-10-15T23:27:28.158Z,10.23
2022-10-15T23:32:44.070Z,3.35
2022-10-15T23:38:00.143Z,4.78
2022-10-15T23:43:15.826Z,4.93
2022-10-15T23:48:31.140Z,5.80
2022-10-15T23:53:47.171Z,3.08
2022-10-15T23:59:04.165Z,4.72
